sensor_id;sensor_type;location;lat;lon;timestamp;pressure;altitude;pressure_sealevel;temperature
8362;BMP180;4218;48.326;14.304;2023-08-06T00:01:29;97551.00;;;15.10
8362;BMP180;4218;48.326;14.304;2023-08-06T00:03:54;97546.00;;;15.00
8362;BMP180;4218;48.326;14.304;2023-08-06T00:06:19;97544.00;;;15.00
8362;BMP180;4218;48.326;14.304;2023-08-06T00:08:45;97544.00;;;14.90
8362;BMP180;4218;48.326;14.304;2023-08-06T00:11:10;97545.00;;;15.00
8362;BMP180;4218;48.326;14.304;2023-08-06T00:13:35;97547.00;;;15.00
8362;BMP180;4218;48.326;14.304;2023-08-06T00:16:13;97553.00;;;14.90
8362;BMP180;4218;48.326;14.304;2023-08-06T00:18:39;97551.00;;;15.00
8362;BMP180;4218;48.326;14.304;2023-08-06T00:21:05;97545.00;;;15.10
8362;BMP180;4218;48.326;14.304;2023-08-06T00:23:30;97536.00;;;15.10
8362;BMP180;4218;48.326;14.304;2023-08-06T00:25:55;97538.00;;;15.00
8362;BMP180;4218;48.326;14.304;2023-08-06T00:28:21;97535.00;;;15.00
8362;BMP180;4218;48.326;14.304;2023-08-06T00:30:52;97532.00;;;15.00
8362;BMP180;4218;48.326;14.304;2023-08-06T00:33:17;97526.00;;;15.00
8362;BMP180;4218;48.326;14.304;2023-08-06T00:35:43;97544.00;;;14.90
8362;BMP180;4218;48.326;14.304;2023-08-06T00:38:08;97535.00;;;15.00
8362;BMP180;4218;48.326;14.304;2023-08-06T00:40:33;97526.00;;;15.10
8362;BMP180;4218;48.326;14.304;2023-08-06T00:42:59;97525.00;;;14.90
8362;BMP180;4218;48.326;14.304;2023-08-06T00:45:27;97536.00;;;14.80
8362;BMP180;4218;48.326;14.304;2023-08-06T00:47:53;97531.00;;;14.90
8362;BMP180;4218;48.326;14.304;2023-08-06T00:50:18;97527.00;;;14.90
8362;BMP180;4218;48.326;14.304;2023-08-06T00:52:46;97525.00;;;14.80
8362;BMP180;4218;48.326;14.304;2023-08-06T00:55:11;97513.00;;;14.90
8362;BMP180;4218;48.326;14.304;2023-08-06T00:57:37;97512.00;;;14.80
8362;BMP180;4218;48.326;14.304;2023-08-06T01:00:03;97501.00;;;14.80
8362;BMP180;4218;48.326;14.304;2023-08-06T01:02:29;97500.00;;;14.80
8362;BMP180;4218;48.326;14.304;2023-08-06T01:04:55;97502.00;;;14.80
8362;BMP180;4218;48.326;14.304;2023-08-06T01:08:03;97495.00;;;14.90
8362;BMP180;4218;48.326;14.304;2023-08-06T01:15:58;97488.00;;;14.70
8362;BMP180;4218;48.326;14.304;2023-08-06T01:18:25;97486.00;;;14.70
8362;BMP180;4218;48.326;14.304;2023-08-06T01:20:51;97489.00;;;14.90
8362;BMP180;4218;48.326;14.304;2023-08-06T01:23:16;97478.00;;;14.70
8362;BMP180;4218;48.326;14.304;2023-08-06T01:25:49;97482.00;;;14.70
8362;BMP180;4218;48.326;14.304;2023-08-06T01:28:24;97485.00;;;14.80
8362;BMP180;4218;48.326;14.304;2023-08-06T01:30:54;97479.00;;;14.70
8362;BMP180;4218;48.326;14.304;2023-08-06T01:33:21;97487.00;;;14.80
8362;BMP180;4218;48.326;14.304;2023-08-06T01:35:49;97479.00;;;14.60
8362;BMP180;4218;48.326;14.304;2023-08-06T01:38:15;97479.00;;;14.70
8362;BMP180;4218;48.326;14.304;2023-08-06T01:40:41;97483.00;;;14.80
8362;BMP180;4218;48.326;14.304;2023-08-06T01:43:07;97479.00;;;14.70
8362;BMP180;4218;48.326;14.304;2023-08-06T01:45:33;97480.00;;;14.70
8362;BMP180;4218;48.326;14.304;2023-08-06T01:47:58;97483.00;;;14.70
8362;BMP180;4218;48.326;14.304;2023-08-06T01:50:24;97480.00;;;14.70
8362;BMP180;4218;48.326;14.304;2023-08-06T01:52:50;97477.00;;;14.70
8362;BMP180;4218;48.326;14.304;2023-08-06T01:55:15;97471.00;;;14.80
8362;BMP180;4218;48.326;14.304;2023-08-06T01:57:40;97466.00;;;14.80
8362;BMP180;4218;48.326;14.304;2023-08-06T02:00:06;97467.00;;;14.70
8362;BMP180;4218;48.326;14.304;2023-08-06T02:02:32;97468.00;;;14.70
8362;BMP180;4218;48.326;14.304;2023-08-06T02:04:59;97470.00;;;14.80
8362;BMP180;4218;48.326;14.304;2023-08-06T02:07:24;97472.00;;;14.70
8362;BMP180;4218;48.326;14.304;2023-08-06T02:09:49;97466.00;;;14.70
8362;BMP180;4218;48.326;14.304;2023-08-06T02:12:15;97464.00;;;14.80
8362;BMP180;4218;48.326;14.304;2023-08-06T02:14:40;97471.00;;;14.70
8362;BMP180;4218;48.326;14.304;2023-08-06T02:17:08;97464.00;;;14.80
8362;BMP180;4218;48.326;14.304;2023-08-06T02:19:33;97464.00;;;14.70
8362;BMP180;4218;48.326;14.304;2023-08-06T02:21:59;97465.00;;;14.70
8362;BMP180;4218;48.326;14.304;2023-08-06T02:24:24;97462.00;;;14.80
8362;BMP180;4218;48.326;14.304;2023-08-06T02:26:50;97456.00;;;14.70
8362;BMP180;4218;48.326;14.304;2023-08-06T02:29:17;97467.00;;;14.70
8362;BMP180;4218;48.326;14.304;2023-08-06T02:31:42;97463.00;;;14.70
8362;BMP180;4218;48.326;14.304;2023-08-06T02:34:08;97447.00;;;14.70
8362;BMP180;4218;48.326;14.304;2023-08-06T02:36:33;97453.00;;;14.70
8362;BMP180;4218;48.326;14.304;2023-08-06T02:38:58;97455.00;;;14.70
8362;BMP180;4218;48.326;14.304;2023-08-06T02:41:24;97459.00;;;14.70
8362;BMP180;4218;48.326;14.304;2023-08-06T02:43:49;97447.00;;;14.60
8362;BMP180;4218;48.326;14.304;2023-08-06T02:46:14;97443.00;;;14.60
8362;BMP180;4218;48.326;14.304;2023-08-06T02:48:40;97440.00;;;14.60
8362;BMP180;4218;48.326;14.304;2023-08-06T02:51:05;97438.00;;;14.60
8362;BMP180;4218;48.326;14.304;2023-08-06T02:53:30;97445.00;;;14.70
8362;BMP180;4218;48.326;14.304;2023-08-06T02:55:57;97439.00;;;14.60
8362;BMP180;4218;48.326;14.304;2023-08-06T02:58:22;97443.00;;;14.60
8362;BMP180;4218;48.326;14.304;2023-08-06T03:01:04;97436.00;;;14.60
8362;BMP180;4218;48.326;14.304;2023-08-06T03:03:31;97435.00;;;14.60
8362;BMP180;4218;48.326;14.304;2023-08-06T03:05:56;97432.00;;;14.60
8362;BMP180;4218;48.326;14.304;2023-08-06T03:08:22;97437.00;;;14.70
8362;BMP180;4218;48.326;14.304;2023-08-06T03:10:50;97430.00;;;14.70
8362;BMP180;4218;48.326;14.304;2023-08-06T03:13:17;97434.00;;;14.70
8362;BMP180;4218;48.326;14.304;2023-08-06T03:15:42;97434.00;;;14.70
8362;BMP180;4218;48.326;14.304;2023-08-06T03:18:08;97437.00;;;14.60
8362;BMP180;4218;48.326;14.304;2023-08-06T03:20:33;97433.00;;;14.60
8362;BMP180;4218;48.326;14.304;2023-08-06T03:22:58;97432.00;;;14.50
8362;BMP180;4218;48.326;14.304;2023-08-06T03:25:24;97433.00;;;14.60
8362;BMP180;4218;48.326;14.304;2023-08-06T03:27:49;97432.00;;;14.60
8362;BMP180;4218;48.326;14.304;2023-08-06T03:30:15;97427.00;;;14.60
8362;BMP180;4218;48.326;14.304;2023-08-06T03:32:40;97424.00;;;14.60
8362;BMP180;4218;48.326;14.304;2023-08-06T03:35:06;97421.00;;;14.60
8362;BMP180;4218;48.326;14.304;2023-08-06T03:37:31;97429.00;;;14.70
8362;BMP180;4218;48.326;14.304;2023-08-06T03:39:56;97425.00;;;14.60
8362;BMP180;4218;48.326;14.304;2023-08-06T03:42:22;97426.00;;;14.60
8362;BMP180;4218;48.326;14.304;2023-08-06T03:44:47;97422.00;;;14.60
8362;BMP180;4218;48.326;14.304;2023-08-06T03:47:13;97414.00;;;14.60
8362;BMP180;4218;48.326;14.304;2023-08-06T03:49:38;97425.00;;;14.60
8362;BMP180;4218;48.326;14.304;2023-08-06T03:52:05;97418.00;;;14.60
8362;BMP180;4218;48.326;14.304;2023-08-06T03:54:30;97416.00;;;14.50
8362;BMP180;4218;48.326;14.304;2023-08-06T03:56:56;97411.00;;;14.60
8362;BMP180;4218;48.326;14.304;2023-08-06T03:59:21;97416.00;;;14.60
8362;BMP180;4218;48.326;14.304;2023-08-06T04:01:47;97418.00;;;14.60
8362;BMP180;4218;48.326;14.304;2023-08-06T04:04:12;97417.00;;;14.60
8362;BMP180;4218;48.326;14.304;2023-08-06T04:06:37;97412.00;;;14.60
8362;BMP180;4218;48.326;14.304;2023-08-06T04:09:03;97416.00;;;14.60
8362;BMP180;4218;48.326;14.304;2023-08-06T04:11:29;97416.00;;;14.60
8362;BMP180;4218;48.326;14.304;2023-08-06T04:13:54;97417.00;;;14.60
8362;BMP180;4218;48.326;14.304;2023-08-06T04:16:20;97411.00;;;14.60
8362;BMP180;4218;48.326;14.304;2023-08-06T04:18:46;97401.00;;;14.60
8362;BMP180;4218;48.326;14.304;2023-08-06T04:21:11;97408.00;;;14.70
8362;BMP180;4218;48.326;14.304;2023-08-06T04:23:37;97403.00;;;14.70
8362;BMP180;4218;48.326;14.304;2023-08-06T04:26:02;97409.00;;;14.70
8362;BMP180;4218;48.326;14.304;2023-08-06T04:28:28;97406.00;;;14.70
8362;BMP180;4218;48.326;14.304;2023-08-06T04:30:53;97409.00;;;14.60
8362;BMP180;4218;48.326;14.304;2023-08-06T04:33:19;97412.00;;;14.70
8362;BMP180;4218;48.326;14.304;2023-08-06T04:35:45;97410.00;;;14.60
8362;BMP180;4218;48.326;14.304;2023-08-06T04:38:10;97410.00;;;14.60
8362;BMP180;4218;48.326;14.304;2023-08-06T04:40:36;97418.00;;;14.60
8362;BMP180;4218;48.326;14.304;2023-08-06T04:43:01;97415.00;;;14.60
8362;BMP180;4218;48.326;14.304;2023-08-06T04:45:27;97414.00;;;14.60
8362;BMP180;4218;48.326;14.304;2023-08-06T04:47:52;97426.00;;;14.60
8362;BMP180;4218;48.326;14.304;2023-08-06T04:50:19;97419.00;;;14.50
8362;BMP180;4218;48.326;14.304;2023-08-06T04:52:44;97416.00;;;14.50
8362;BMP180;4218;48.326;14.304;2023-08-06T04:55:10;97426.00;;;14.50
8362;BMP180;4218;48.326;14.304;2023-08-06T04:57:35;97421.00;;;14.40
8362;BMP180;4218;48.326;14.304;2023-08-06T05:00:00;97417.00;;;14.50
8362;BMP180;4218;48.326;14.304;2023-08-06T05:02:26;97414.00;;;14.50
8362;BMP180;4218;48.326;14.304;2023-08-06T05:04:51;97415.00;;;14.40
8362;BMP180;4218;48.326;14.304;2023-08-06T05:07:16;97415.00;;;14.30
8362;BMP180;4218;48.326;14.304;2023-08-06T05:09:42;97420.00;;;14.30
8362;BMP180;4218;48.326;14.304;2023-08-06T05:12:09;97430.00;;;14.30
8362;BMP180;4218;48.326;14.304;2023-08-06T05:14:34;97425.00;;;14.40
8362;BMP180;4218;48.326;14.304;2023-08-06T05:16:59;97437.00;;;14.30
8362;BMP180;4218;48.326;14.304;2023-08-06T05:19:27;97421.00;;;14.30
8362;BMP180;4218;48.326;14.304;2023-08-06T05:21:52;97439.00;;;14.30
8362;BMP180;4218;48.326;14.304;2023-08-06T05:24:18;97437.00;;;14.30
8362;BMP180;4218;48.326;14.304;2023-08-06T05:26:43;97425.00;;;14.30
8362;BMP180;4218;48.326;14.304;2023-08-06T05:29:11;97424.00;;;14.30
8362;BMP180;4218;48.326;14.304;2023-08-06T05:31:37;97430.00;;;14.30
8362;BMP180;4218;48.326;14.304;2023-08-06T05:34:02;97430.00;;;14.40
8362;BMP180;4218;48.326;14.304;2023-08-06T05:36:28;97430.00;;;14.40
8362;BMP180;4218;48.326;14.304;2023-08-06T05:38:53;97412.00;;;14.30
8362;BMP180;4218;48.326;14.304;2023-08-06T05:41:18;97418.00;;;14.40
8362;BMP180;4218;48.326;14.304;2023-08-06T05:43:44;97420.00;;;14.40
8362;BMP180;4218;48.326;14.304;2023-08-06T05:46:10;97426.00;;;14.50
8362;BMP180;4218;48.326;14.304;2023-08-06T05:48:35;97424.00;;;14.50
8362;BMP180;4218;48.326;14.304;2023-08-06T05:51:01;97415.00;;;14.50
8362;BMP180;4218;48.326;14.304;2023-08-06T05:53:26;97412.00;;;14.40
8362;BMP180;4218;48.326;14.304;2023-08-06T05:55:51;97415.00;;;14.50
8362;BMP180;4218;48.326;14.304;2023-08-06T05:58:17;97421.00;;;14.50
8362;BMP180;4218;48.326;14.304;2023-08-06T06:00:43;97427.00;;;14.40
8362;BMP180;4218;48.326;14.304;2023-08-06T06:03:08;97425.00;;;14.40
8362;BMP180;4218;48.326;14.304;2023-08-06T06:05:33;97407.00;;;14.40
8362;BMP180;4218;48.326;14.304;2023-08-06T06:07:59;97410.00;;;14.40
8362;BMP180;4218;48.326;14.304;2023-08-06T06:10:24;97411.00;;;14.50
8362;BMP180;4218;48.326;14.304;2023-08-06T06:12:50;97410.00;;;14.60
8362;BMP180;4218;48.326;14.304;2023-08-06T06:15:15;97414.00;;;14.60
8362;BMP180;4218;48.326;14.304;2023-08-06T06:17:40;97430.00;;;14.60
8362;BMP180;4218;48.326;14.304;2023-08-06T06:20:06;97419.00;;;14.60
8362;BMP180;4218;48.326;14.304;2023-08-06T06:22:32;97420.00;;;14.60
8362;BMP180;4218;48.326;14.304;2023-08-06T06:24:57;97414.00;;;14.80
8362;BMP180;4218;48.326;14.304;2023-08-06T06:27:23;97405.00;;;14.90
8362;BMP180;4218;48.326;14.304;2023-08-06T06:29:48;97414.00;;;14.80
8362;BMP180;4218;48.326;14.304;2023-08-06T06:32:13;97412.00;;;14.80
8362;BMP180;4218;48.326;14.304;2023-08-06T06:34:39;97419.00;;;14.90
8362;BMP180;4218;48.326;14.304;2023-08-06T06:37:04;97409.00;;;15.00
8362;BMP180;4218;48.326;14.304;2023-08-06T06:39:30;97414.00;;;14.90
8362;BMP180;4218;48.326;14.304;2023-08-06T06:41:55;97407.00;;;15.00
8362;BMP180;4218;48.326;14.304;2023-08-06T06:44:20;97411.00;;;15.10
8362;BMP180;4218;48.326;14.304;2023-08-06T06:46:46;97408.00;;;15.20
8362;BMP180;4218;48.326;14.304;2023-08-06T06:49:11;97409.00;;;15.30
8362;BMP180;4218;48.326;14.304;2023-08-06T06:51:37;97412.00;;;15.40
8362;BMP180;4218;48.326;14.304;2023-08-06T06:54:02;97407.00;;;15.30
8362;BMP180;4218;48.326;14.304;2023-08-06T06:56:27;97418.00;;;15.50
8362;BMP180;4218;48.326;14.304;2023-08-06T06:58:53;97413.00;;;15.60
8362;BMP180;4218;48.326;14.304;2023-08-06T07:01:18;97419.00;;;15.60
8362;BMP180;4218;48.326;14.304;2023-08-06T07:03:44;97417.00;;;15.70
8362;BMP180;4218;48.326;14.304;2023-08-06T07:06:09;97416.00;;;15.80
8362;BMP180;4218;48.326;14.304;2023-08-06T07:08:34;97416.00;;;15.90
8362;BMP180;4218;48.326;14.304;2023-08-06T07:11:04;97420.00;;;15.90
8362;BMP180;4218;48.326;14.304;2023-08-06T07:13:30;97434.00;;;16.00
8362;BMP180;4218;48.326;14.304;2023-08-06T07:15:55;97413.00;;;16.00
8362;BMP180;4218;48.326;14.304;2023-08-06T07:18:21;97420.00;;;16.10
8362;BMP180;4218;48.326;14.304;2023-08-06T07:20:50;97428.00;;;16.30
8362;BMP180;4218;48.326;14.304;2023-08-06T07:23:16;97423.00;;;16.30
8362;BMP180;4218;48.326;14.304;2023-08-06T07:25:42;97427.00;;;16.10
8362;BMP180;4218;48.326;14.304;2023-08-06T07:28:08;97429.00;;;16.10
8362;BMP180;4218;48.326;14.304;2023-08-06T07:30:33;97420.00;;;15.90
8362;BMP180;4218;48.326;14.304;2023-08-06T07:32:58;97422.00;;;15.90
8362;BMP180;4218;48.326;14.304;2023-08-06T07:35:24;97417.00;;;15.90
8362;BMP180;4218;48.326;14.304;2023-08-06T07:37:49;97414.00;;;16.00
8362;BMP180;4218;48.326;14.304;2023-08-06T07:40:14;97411.00;;;16.10
8362;BMP180;4218;48.326;14.304;2023-08-06T07:42:40;97415.00;;;16.10
8362;BMP180;4218;48.326;14.304;2023-08-06T07:45:07;97417.00;;;16.00
8362;BMP180;4218;48.326;14.304;2023-08-06T07:47:32;97420.00;;;16.10
8362;BMP180;4218;48.326;14.304;2023-08-06T07:49:58;97421.00;;;16.00
8362;BMP180;4218;48.326;14.304;2023-08-06T07:52:23;97427.00;;;16.10
8362;BMP180;4218;48.326;14.304;2023-08-06T07:54:48;97418.00;;;16.10
8362;BMP180;4218;48.326;14.304;2023-08-06T07:57:14;97430.00;;;16.10
8362;BMP180;4218;48.326;14.304;2023-08-06T07:59:41;97425.00;;;16.10
8362;BMP180;4218;48.326;14.304;2023-08-06T08:02:06;97424.00;;;16.10
8362;BMP180;4218;48.326;14.304;2023-08-06T08:04:31;97430.00;;;16.10
8362;BMP180;4218;48.326;14.304;2023-08-06T08:06:57;97419.00;;;16.20
8362;BMP180;4218;48.326;14.304;2023-08-06T08:09:22;97426.00;;;16.20
8362;BMP180;4218;48.326;14.304;2023-08-06T08:11:49;97417.00;;;16.20
8362;BMP180;4218;48.326;14.304;2023-08-06T08:14:15;97422.00;;;16.30
8362;BMP180;4218;48.326;14.304;2023-08-06T08:16:40;97413.00;;;16.30
8362;BMP180;4218;48.326;14.304;2023-08-06T08:19:06;97420.00;;;16.30
8362;BMP180;4218;48.326;14.304;2023-08-06T08:21:31;97416.00;;;16.40
8362;BMP180;4218;48.326;14.304;2023-08-06T08:23:59;97414.00;;;16.40
8362;BMP180;4218;48.326;14.304;2023-08-06T08:26:25;97409.00;;;16.40
8362;BMP180;4218;48.326;14.304;2023-08-06T08:28:52;97417.00;;;16.50
8362;BMP180;4218;48.326;14.304;2023-08-06T08:31:18;97413.00;;;16.60
8362;BMP180;4218;48.326;14.304;2023-08-06T08:33:43;97408.00;;;16.70
8362;BMP180;4218;48.326;14.304;2023-08-06T08:36:08;97394.00;;;16.80
8362;BMP180;4218;48.326;14.304;2023-08-06T08:38:35;97399.00;;;16.80
8362;BMP180;4218;48.326;14.304;2023-08-06T08:41:00;97395.00;;;16.90
8362;BMP180;4218;48.326;14.304;2023-08-06T08:43:27;97396.00;;;17.00
8362;BMP180;4218;48.326;14.304;2023-08-06T08:45:53;97400.00;;;17.00
8362;BMP180;4218;48.326;14.304;2023-08-06T08:48:24;97398.00;;;16.90
8362;BMP180;4218;48.326;14.304;2023-08-06T08:50:50;97390.00;;;16.80
8362;BMP180;4218;48.326;14.304;2023-08-06T08:53:17;97401.00;;;16.60
8362;BMP180;4218;48.326;14.304;2023-08-06T08:55:47;97396.00;;;16.70
8362;BMP180;4218;48.326;14.304;2023-08-06T08:58:13;97386.00;;;16.60
8362;BMP180;4218;48.326;14.304;2023-08-06T09:00:42;97392.00;;;16.50
8362;BMP180;4218;48.326;14.304;2023-08-06T09:03:07;97397.00;;;16.40
8362;BMP180;4218;48.326;14.304;2023-08-06T09:05:33;97397.00;;;16.40
8362;BMP180;4218;48.326;14.304;2023-08-06T09:08:02;97389.00;;;16.50
8362;BMP180;4218;48.326;14.304;2023-08-06T09:10:28;97380.00;;;16.40
8362;BMP180;4218;48.326;14.304;2023-08-06T09:12:55;97386.00;;;16.30
8362;BMP180;4218;48.326;14.304;2023-08-06T09:15:24;97376.00;;;16.30
8362;BMP180;4218;48.326;14.304;2023-08-06T09:17:52;97386.00;;;16.40
8362;BMP180;4218;48.326;14.304;2023-08-06T09:20:17;97378.00;;;16.40
8362;BMP180;4218;48.326;14.304;2023-08-06T09:22:43;97374.00;;;16.60
8362;BMP180;4218;48.326;14.304;2023-08-06T09:25:09;97377.00;;;16.70
8362;BMP180;4218;48.326;14.304;2023-08-06T09:27:38;97374.00;;;16.80
8362;BMP180;4218;48.326;14.304;2023-08-06T09:30:06;97381.00;;;17.10
8362;BMP180;4218;48.326;14.304;2023-08-06T09:32:48;97376.00;;;17.00
8362;BMP180;4218;48.326;14.304;2023-08-06T09:35:19;97370.00;;;17.00
8362;BMP180;4218;48.326;14.304;2023-08-06T09:37:45;97370.00;;;17.20
8362;BMP180;4218;48.326;14.304;2023-08-06T09:42:48;97371.00;;;17.20
8362;BMP180;4218;48.326;14.304;2023-08-06T09:45:13;97369.00;;;17.40
8362;BMP180;4218;48.326;14.304;2023-08-06T09:47:40;97376.00;;;17.50
8362;BMP180;4218;48.326;14.304;2023-08-06T09:50:15;97373.00;;;17.50
8362;BMP180;4218;48.326;14.304;2023-08-06T09:52:41;97370.00;;;17.60
8362;BMP180;4218;48.326;14.304;2023-08-06T09:55:08;97373.00;;;17.70
8362;BMP180;4218;48.326;14.304;2023-08-06T09:57:33;97365.00;;;17.80
8362;BMP180;4218;48.326;14.304;2023-08-06T09:59:59;97359.00;;;17.80
8362;BMP180;4218;48.326;14.304;2023-08-06T10:02:26;97362.00;;;17.90
8362;BMP180;4218;48.326;14.304;2023-08-06T10:04:52;97361.00;;;17.60
8362;BMP180;4218;48.326;14.304;2023-08-06T10:07:21;97358.00;;;17.50
8362;BMP180;4218;48.326;14.304;2023-08-06T10:09:47;97360.00;;;17.30
8362;BMP180;4218;48.326;14.304;2023-08-06T10:12:13;97364.00;;;17.30
8362;BMP180;4218;48.326;14.304;2023-08-06T10:14:40;97356.00;;;17.30
8362;BMP180;4218;48.326;14.304;2023-08-06T10:17:06;97364.00;;;17.20
8362;BMP180;4218;48.326;14.304;2023-08-06T10:19:33;97357.00;;;17.30
8362;BMP180;4218;48.326;14.304;2023-08-06T10:22:12;97364.00;;;17.50
8362;BMP180;4218;48.326;14.304;2023-08-06T10:24:58;97365.00;;;17.50
8362;BMP180;4218;48.326;14.304;2023-08-06T10:27:32;97372.00;;;17.50
8362;BMP180;4218;48.326;14.304;2023-08-06T10:30:27;97366.00;;;17.80
8362;BMP180;4218;48.326;14.304;2023-08-06T10:32:55;97368.00;;;18.00
8362;BMP180;4218;48.326;14.304;2023-08-06T10:37:58;97353.00;;;18.20
8362;BMP180;4218;48.326;14.304;2023-08-06T10:40:23;97347.00;;;18.30
8362;BMP180;4218;48.326;14.304;2023-08-06T10:42:49;97341.00;;;18.30
8362;BMP180;4218;48.326;14.304;2023-08-06T10:45:16;97342.00;;;18.20
8362;BMP180;4218;48.326;14.304;2023-08-06T10:47:42;97332.00;;;18.20
8362;BMP180;4218;48.326;14.304;2023-08-06T10:50:11;97342.00;;;18.30
8362;BMP180;4218;48.326;14.304;2023-08-06T10:52:37;97329.00;;;18.30
8362;BMP180;4218;48.326;14.304;2023-08-06T10:55:03;97332.00;;;18.60
8362;BMP180;4218;48.326;14.304;2023-08-06T10:57:29;97332.00;;;19.00
8362;BMP180;4218;48.326;14.304;2023-08-06T10:59:54;97337.00;;;19.20
8362;BMP180;4218;48.326;14.304;2023-08-06T11:02:19;97327.00;;;19.30
8362;BMP180;4218;48.326;14.304;2023-08-06T11:04:45;97319.00;;;19.30
8362;BMP180;4218;48.326;14.304;2023-08-06T11:07:10;97328.00;;;19.00
8362;BMP180;4218;48.326;14.304;2023-08-06T11:09:37;97330.00;;;19.00
8362;BMP180;4218;48.326;14.304;2023-08-06T11:12:02;97329.00;;;19.10
8362;BMP180;4218;48.326;14.304;2023-08-06T11:14:30;97339.00;;;19.40
8362;BMP180;4218;48.326;14.304;2023-08-06T11:16:56;97328.00;;;19.80
8362;BMP180;4218;48.326;14.304;2023-08-06T11:19:23;97322.00;;;19.80
8362;BMP180;4218;48.326;14.304;2023-08-06T11:21:51;97321.00;;;19.90
8362;BMP180;4218;48.326;14.304;2023-08-06T11:24:17;97318.00;;;19.70
8362;BMP180;4218;48.326;14.304;2023-08-06T11:26:42;97322.00;;;19.80
8362;BMP180;4218;48.326;14.304;2023-08-06T11:29:09;97332.00;;;19.70
8362;BMP180;4218;48.326;14.304;2023-08-06T11:31:36;97333.00;;;19.20
8362;BMP180;4218;48.326;14.304;2023-08-06T11:34:01;97342.00;;;18.40
8362;BMP180;4218;48.326;14.304;2023-08-06T11:36:30;97337.00;;;17.40
8362;BMP180;4218;48.326;14.304;2023-08-06T11:38:57;97350.00;;;17.00
8362;BMP180;4218;48.326;14.304;2023-08-06T11:41:23;97353.00;;;16.60
8362;BMP180;4218;48.326;14.304;2023-08-06T11:43:48;97353.00;;;16.50
8362;BMP180;4218;48.326;14.304;2023-08-06T11:46:13;97350.00;;;16.50
8362;BMP180;4218;48.326;14.304;2023-08-06T11:48:55;97352.00;;;16.50
8362;BMP180;4218;48.326;14.304;2023-08-06T11:51:24;97353.00;;;16.50
8362;BMP180;4218;48.326;14.304;2023-08-06T11:53:58;97340.00;;;16.60
8362;BMP180;4218;48.326;14.304;2023-08-06T11:56:24;97339.00;;;16.70
8362;BMP180;4218;48.326;14.304;2023-08-06T11:58:51;97344.00;;;16.70
8362;BMP180;4218;48.326;14.304;2023-08-06T12:01:17;97352.00;;;16.50
8362;BMP180;4218;48.326;14.304;2023-08-06T12:03:43;97390.00;;;16.40
8362;BMP180;4218;48.326;14.304;2023-08-06T12:06:08;97377.00;;;16.30
8362;BMP180;4218;48.326;14.304;2023-08-06T12:08:34;97395.00;;;15.70
8362;BMP180;4218;48.326;14.304;2023-08-06T12:10:59;97382.00;;;15.40
8362;BMP180;4218;48.326;14.304;2023-08-06T12:13:25;97384.00;;;15.30
8362;BMP180;4218;48.326;14.304;2023-08-06T12:15:50;97371.00;;;15.40
8362;BMP180;4218;48.326;14.304;2023-08-06T12:18:18;97376.00;;;15.50
8362;BMP180;4218;48.326;14.304;2023-08-06T12:20:43;97380.00;;;15.60
8362;BMP180;4218;48.326;14.304;2023-08-06T12:23:09;97363.00;;;15.60
8362;BMP180;4218;48.326;14.304;2023-08-06T12:25:35;97356.00;;;15.70
8362;BMP180;4218;48.326;14.304;2023-08-06T12:28:00;97357.00;;;15.80
8362;BMP180;4218;48.326;14.304;2023-08-06T12:30:26;97360.00;;;15.80
8362;BMP180;4218;48.326;14.304;2023-08-06T12:32:51;97372.00;;;15.70
8362;BMP180;4218;48.326;14.304;2023-08-06T12:35:17;97400.00;;;15.50
8362;BMP180;4218;48.326;14.304;2023-08-06T12:37:42;97390.00;;;15.50
8362;BMP180;4218;48.326;14.304;2023-08-06T12:40:09;97411.00;;;15.40
8362;BMP180;4218;48.326;14.304;2023-08-06T12:42:34;97399.00;;;15.40
8362;BMP180;4218;48.326;14.304;2023-08-06T12:45:00;97414.00;;;15.40
8362;BMP180;4218;48.326;14.304;2023-08-06T12:47:25;97415.00;;;15.20
8362;BMP180;4218;48.326;14.304;2023-08-06T12:49:50;97422.00;;;15.20
8362;BMP180;4218;48.326;14.304;2023-08-06T12:52:16;97429.00;;;15.20
8362;BMP180;4218;48.326;14.304;2023-08-06T12:54:42;97416.00;;;15.10
8362;BMP180;4218;48.326;14.304;2023-08-06T12:57:07;97437.00;;;15.00
8362;BMP180;4218;48.326;14.304;2023-08-06T12:59:33;97436.00;;;14.80
8362;BMP180;4218;48.326;14.304;2023-08-06T13:01:59;97437.00;;;14.50
8362;BMP180;4218;48.326;14.304;2023-08-06T13:04:25;97426.00;;;14.60
8362;BMP180;4218;48.326;14.304;2023-08-06T13:06:50;97430.00;;;14.60
8362;BMP180;4218;48.326;14.304;2023-08-06T13:09:16;97431.00;;;14.60
8362;BMP180;4218;48.326;14.304;2023-08-06T13:11:41;97427.00;;;14.60
8362;BMP180;4218;48.326;14.304;2023-08-06T13:14:11;97434.00;;;14.60
8362;BMP180;4218;48.326;14.304;2023-08-06T13:16:38;97442.00;;;14.60
8362;BMP180;4218;48.326;14.304;2023-08-06T13:19:05;97434.00;;;14.70
8362;BMP180;4218;48.326;14.304;2023-08-06T13:22:18;97442.00;;;15.00
8362;BMP180;4218;48.326;14.304;2023-08-06T13:24:19;97439.00;;;15.20
8362;BMP180;4218;48.326;14.304;2023-08-06T13:26:44;97440.00;;;15.30
8362;BMP180;4218;48.326;14.304;2023-08-06T13:29:10;97438.00;;;15.40
8362;BMP180;4218;48.326;14.304;2023-08-06T13:31:36;97447.00;;;15.40
8362;BMP180;4218;48.326;14.304;2023-08-06T13:34:02;97434.00;;;15.40
8362;BMP180;4218;48.326;14.304;2023-08-06T13:36:27;97440.00;;;15.30
8362;BMP180;4218;48.326;14.304;2023-08-06T13:38:53;97442.00;;;15.30
8362;BMP180;4218;48.326;14.304;2023-08-06T13:41:19;97439.00;;;15.60
8362;BMP180;4218;48.326;14.304;2023-08-06T13:43:44;97441.00;;;15.70
8362;BMP180;4218;48.326;14.304;2023-08-06T13:46:11;97446.00;;;16.00
8362;BMP180;4218;48.326;14.304;2023-08-06T13:48:42;97441.00;;;16.10
8362;BMP180;4218;48.326;14.304;2023-08-06T13:51:08;97446.00;;;16.20
8362;BMP180;4218;48.326;14.304;2023-08-06T13:53:34;97441.00;;;16.40
8362;BMP180;4218;48.326;14.304;2023-08-06T13:55:59;97445.00;;;16.60
8362;BMP180;4218;48.326;14.304;2023-08-06T13:58:25;97441.00;;;16.70
8362;BMP180;4218;48.326;14.304;2023-08-06T14:00:51;97438.00;;;16.80
8362;BMP180;4218;48.326;14.304;2023-08-06T14:03:18;97433.00;;;16.80
8362;BMP180;4218;48.326;14.304;2023-08-06T14:05:44;97428.00;;;16.80
8362;BMP180;4218;48.326;14.304;2023-08-06T14:08:09;97433.00;;;16.80
8362;BMP180;4218;48.326;14.304;2023-08-06T14:10:34;97433.00;;;16.90
8362;BMP180;4218;48.326;14.304;2023-08-06T14:13:00;97447.00;;;17.00
8362;BMP180;4218;48.326;14.304;2023-08-06T14:15:25;97448.00;;;17.20
8362;BMP180;4218;48.326;14.304;2023-08-06T14:17:50;97452.00;;;17.20
8362;BMP180;4218;48.326;14.304;2023-08-06T14:20:16;97453.00;;;17.00
8362;BMP180;4218;48.326;14.304;2023-08-06T14:22:41;97447.00;;;16.90
8362;BMP180;4218;48.326;14.304;2023-08-06T14:25:07;97455.00;;;16.80
8362;BMP180;4218;48.326;14.304;2023-08-06T14:27:32;97459.00;;;16.90